sensor_id;sensor_type;location;lat;lon;timestamp;P1;durP1;ratioP1;P2;durP2;ratioP2
3341;SDS011;1684;50.748;6.154;2023-08-17T00:00:08;12.40;;;9.30;;
3341;SDS011;1684;50.748;6.154;2023-08-17T00:02:39;13.40;;;8.60;;
3341;SDS011;1684;50.748;6.154;2023-08-17T00:05:08;10.77;;;8.90;;
3341;SDS011;1684;50.748;6.154;2023-08-17T00:07:36;16.10;;;9.27;;
3341;SDS011;1684;50.748;6.154;2023-08-17T00:10:06;13.47;;;9.70;;
3341;SDS011;1684;50.748;6.154;2023-08-17T00:12:34;12.20;;;9.07;;
3341;SDS011;1684;50.748;6.154;2023-08-17T00:15:02;11.00;;;8.80;;
3341;SDS011;1684;50.748;6.154;2023-08-17T00:17:31;10.20;;;7.57;;
3341;SDS011;1684;50.748;6.154;2023-08-17T00:19:59;12.77;;;8.90;;
3341;SDS011;1684;50.748;6.154;2023-08-17T00:22:27;9.50;;;7.83;;
3341;SDS011;1684;50.748;6.154;2023-08-17T00:24:56;9.47;;;7.90;;
3341;SDS011;1684;50.748;6.154;2023-08-17T00:27:25;12.70;;;9.57;;
3341;SDS011;1684;50.748;6.154;2023-08-17T00:29:53;10.73;;;8.73;;
3341;SDS011;1684;50.748;6.154;2023-08-17T00:32:22;13.20;;;9.70;;
3341;SDS011;1684;50.748;6.154;2023-08-17T00:34:50;10.60;;;8.93;;
3341;SDS011;1684;50.748;6.154;2023-08-17T00:37:18;11.30;;;9.67;;
3341;SDS011;1684;50.748;6.154;2023-08-17T00:39:46;12.60;;;9.57;;
3341;SDS011;1684;50.748;6.154;2023-08-17T00:42:15;17.63;;;12.17;;
3341;SDS011;1684;50.748;6.154;2023-08-17T00:44:44;18.73;;;12.70;;
3341;SDS011;1684;50.748;6.154;2023-08-17T00:47:13;12.10;;;10.40;;
3341;SDS011;1684;50.748;6.154;2023-08-17T00:49:42;15.83;;;13.17;;
3341;SDS011;1684;50.748;6.154;2023-08-17T00:52:10;15.10;;;11.50;;
3341;SDS011;1684;50.748;6.154;2023-08-17T00:54:38;13.90;;;12.05;;
3341;SDS011;1684;50.748;6.154;2023-08-17T00:57:07;16.60;;;12.00;;
3341;SDS011;1684;50.748;6.154;2023-08-17T00:59:36;17.00;;;13.43;;
3341;SDS011;1684;50.748;6.154;2023-08-17T01:02:08;15.00;;;11.87;;
3341;SDS011;1684;50.748;6.154;2023-08-17T01:04:36;14.87;;;11.50;;
3341;SDS011;1684;50.748;6.154;2023-08-17T01:07:04;16.90;;;10.50;;
3341;SDS011;1684;50.748;6.154;2023-08-17T01:09:33;13.93;;;11.50;;
3341;SDS011;1684;50.748;6.154;2023-08-17T01:12:08;16.30;;;13.40;;
3341;SDS011;1684;50.748;6.154;2023-08-17T01:14:39;12.87;;;11.30;;
3341;SDS011;1684;50.748;6.154;2023-08-17T01:17:15;16.37;;;12.90;;
3341;SDS011;1684;50.748;6.154;2023-08-17T01:19:46;24.33;;;19.53;;
3341;SDS011;1684;50.748;6.154;2023-08-17T01:22:17;22.37;;;20.00;;
3341;SDS011;1684;50.748;6.154;2023-08-17T01:24:46;23.53;;;18.67;;
3341;SDS011;1684;50.748;6.154;2023-08-17T01:27:15;16.10;;;13.30;;
3341;SDS011;1684;50.748;6.154;2023-08-17T01:29:43;18.23;;;11.97;;
3341;SDS011;1684;50.748;6.154;2023-08-17T01:32:12;14.60;;;11.57;;
3341;SDS011;1684;50.748;6.154;2023-08-17T01:34:43;16.03;;;12.90;;
3341;SDS011;1684;50.748;6.154;2023-08-17T01:37:12;19.60;;;14.70;;
3341;SDS011;1684;50.748;6.154;2023-08-17T01:39:43;19.43;;;15.23;;
3341;SDS011;1684;50.748;6.154;2023-08-17T01:42:13;13.90;;;11.50;;
3341;SDS011;1684;50.748;6.154;2023-08-17T01:44:41;16.23;;;12.10;;
3341;SDS011;1684;50.748;6.154;2023-08-17T01:47:10;25.50;;;20.00;;
3341;SDS011;1684;50.748;6.154;2023-08-17T01:49:38;15.57;;;11.40;;
3341;SDS011;1684;50.748;6.154;2023-08-17T01:52:06;16.17;;;13.47;;
3341;SDS011;1684;50.748;6.154;2023-08-17T01:54:35;18.80;;;12.83;;
3341;SDS011;1684;50.748;6.154;2023-08-17T01:57:03;16.47;;;12.93;;
3341;SDS011;1684;50.748;6.154;2023-08-17T01:59:33;17.87;;;12.10;;
3341;SDS011;1684;50.748;6.154;2023-08-17T02:02:02;14.63;;;11.40;;
3341;SDS011;1684;50.748;6.154;2023-08-17T02:04:30;14.43;;;11.60;;
3341;SDS011;1684;50.748;6.154;2023-08-17T02:06:58;19.10;;;12.20;;
3341;SDS011;1684;50.748;6.154;2023-08-17T02:09:26;15.73;;;12.43;;
3341;SDS011;1684;50.748;6.154;2023-08-17T02:11:55;16.63;;;11.93;;
3341;SDS011;1684;50.748;6.154;2023-08-17T02:14:24;12.27;;;10.70;;
3341;SDS011;1684;50.748;6.154;2023-08-17T02:16:53;14.63;;;12.23;;
3341;SDS011;1684;50.748;6.154;2023-08-17T02:19:22;14.10;;;12.13;;
3341;SDS011;1684;50.748;6.154;2023-08-17T02:21:50;15.73;;;12.33;;
3341;SDS011;1684;50.748;6.154;2023-08-17T02:24:18;16.77;;;13.17;;
3341;SDS011;1684;50.748;6.154;2023-08-17T02:26:46;14.40;;;11.37;;
3341;SDS011;1684;50.748;6.154;2023-08-17T02:29:14;16.33;;;11.40;;
3341;SDS011;1684;50.748;6.154;2023-08-17T02:31:43;17.63;;;12.50;;
3341;SDS011;1684;50.748;6.154;2023-08-17T02:34:12;17.60;;;13.30;;
3341;SDS011;1684;50.748;6.154;2023-08-17T02:36:40;19.97;;;11.93;;
3341;SDS011;1684;50.748;6.154;2023-08-17T02:39:09;13.93;;;11.53;;
3341;SDS011;1684;50.748;6.154;2023-08-17T02:41:37;14.83;;;11.93;;
3341;SDS011;1684;50.748;6.154;2023-08-17T02:44:05;16.10;;;12.20;;
3341;SDS011;1684;50.748;6.154;2023-08-17T02:46:34;19.63;;;14.23;;
3341;SDS011;1684;50.748;6.154;2023-08-17T02:49:02;28.97;;;16.67;;
3341;SDS011;1684;50.748;6.154;2023-08-17T02:51:32;18.80;;;13.67;;
3341;SDS011;1684;50.748;6.154;2023-08-17T02:54:00;14.00;;;12.50;;
3341;SDS011;1684;50.748;6.154;2023-08-17T02:56:28;19.00;;;13.67;;
3341;SDS011;1684;50.748;6.154;2023-08-17T02:58:56;19.40;;;13.50;;
3341;SDS011;1684;50.748;6.154;2023-08-17T03:01:25;15.77;;;13.40;;
3341;SDS011;1684;50.748;6.154;2023-08-17T03:03:53;23.83;;;16.80;;
3341;SDS011;1684;50.748;6.154;2023-08-17T03:06:21;16.50;;;12.70;;
3341;SDS011;1684;50.748;6.154;2023-08-17T03:08:51;19.50;;;14.33;;
3341;SDS011;1684;50.748;6.154;2023-08-17T03:11:20;21.60;;;13.67;;
3341;SDS011;1684;50.748;6.154;2023-08-17T03:13:48;18.33;;;13.77;;
3341;SDS011;1684;50.748;6.154;2023-08-17T03:16:16;15.20;;;13.20;;
3341;SDS011;1684;50.748;6.154;2023-08-17T03:18:44;17.20;;;13.30;;
3341;SDS011;1684;50.748;6.154;2023-08-17T03:21:14;22.70;;;16.90;;
3341;SDS011;1684;50.748;6.154;2023-08-17T03:23:43;13.97;;;11.50;;
3341;SDS011;1684;50.748;6.154;2023-08-17T03:26:13;15.90;;;12.40;;
3341;SDS011;1684;50.748;6.154;2023-08-17T03:28:41;14.73;;;12.07;;
3341;SDS011;1684;50.748;6.154;2023-08-17T03:31:10;15.03;;;12.53;;
3341;SDS011;1684;50.748;6.154;2023-08-17T03:33:38;20.37;;;13.90;;
3341;SDS011;1684;50.748;6.154;2023-08-17T03:36:07;14.67;;;12.40;;
3341;SDS011;1684;50.748;6.154;2023-08-17T03:38:35;15.93;;;13.47;;
3341;SDS011;1684;50.748;6.154;2023-08-17T03:41:05;18.80;;;13.77;;
3341;SDS011;1684;50.748;6.154;2023-08-17T03:43:34;16.80;;;12.60;;
3341;SDS011;1684;50.748;6.154;2023-08-17T03:46:03;14.20;;;11.30;;
3341;SDS011;1684;50.748;6.154;2023-08-17T03:48:32;21.77;;;16.70;;
3341;SDS011;1684;50.748;6.154;2023-08-17T03:51:00;16.80;;;12.70;;
3341;SDS011;1684;50.748;6.154;2023-08-17T03:53:29;15.13;;;11.50;;
3341;SDS011;1684;50.748;6.154;2023-08-17T03:55:57;13.53;;;10.93;;
3341;SDS011;1684;50.748;6.154;2023-08-17T03:58:25;16.83;;;12.50;;
3341;SDS011;1684;50.748;6.154;2023-08-17T04:00:59;16.60;;;13.17;;
3341;SDS011;1684;50.748;6.154;2023-08-17T04:03:28;13.70;;;11.97;;
3341;SDS011;1684;50.748;6.154;2023-08-17T04:05:56;17.90;;;13.50;;
3341;SDS011;1684;50.748;6.154;2023-08-17T04:08:24;19.10;;;15.17;;
3341;SDS011;1684;50.748;6.154;2023-08-17T04:10:53;15.20;;;12.67;;
3341;SDS011;1684;50.748;6.154;2023-08-17T04:13:21;17.93;;;14.37;;
3341;SDS011;1684;50.748;6.154;2023-08-17T04:15:49;17.00;;;12.43;;
3341;SDS011;1684;50.748;6.154;2023-08-17T04:18:19;25.70;;;19.53;;
3341;SDS011;1684;50.748;6.154;2023-08-17T04:20:47;15.33;;;13.70;;
3341;SDS011;1684;50.748;6.154;2023-08-17T04:23:20;17.80;;;14.03;;
3341;SDS011;1684;50.748;6.154;2023-08-17T04:25:48;17.17;;;13.20;;
3341;SDS011;1684;50.748;6.154;2023-08-17T04:28:16;28.60;;;21.07;;
3341;SDS011;1684;50.748;6.154;2023-08-17T04:30:45;24.00;;;16.50;;
3341;SDS011;1684;50.748;6.154;2023-08-17T04:33:13;17.93;;;14.00;;
3341;SDS011;1684;50.748;6.154;2023-08-17T04:35:42;13.93;;;12.33;;
3341;SDS011;1684;50.748;6.154;2023-08-17T04:38:14;14.40;;;11.53;;
3341;SDS011;1684;50.748;6.154;2023-08-17T04:40:42;14.27;;;11.60;;
3341;SDS011;1684;50.748;6.154;2023-08-17T04:43:10;17.87;;;11.93;;
3341;SDS011;1684;50.748;6.154;2023-08-17T04:45:39;15.47;;;12.17;;
3341;SDS011;1684;50.748;6.154;2023-08-17T04:48:07;14.80;;;11.53;;
3341;SDS011;1684;50.748;6.154;2023-08-17T04:50:35;16.63;;;12.40;;
3341;SDS011;1684;50.748;6.154;2023-08-17T04:53:05;18.07;;;12.90;;
3341;SDS011;1684;50.748;6.154;2023-08-17T04:55:33;14.70;;;11.30;;
3341;SDS011;1684;50.748;6.154;2023-08-17T04:58:01;16.10;;;12.73;;
3341;SDS011;1684;50.748;6.154;2023-08-17T05:00:30;18.10;;;12.60;;
3341;SDS011;1684;50.748;6.154;2023-08-17T05:03:01;20.03;;;14.23;;
3341;SDS011;1684;50.748;6.154;2023-08-17T05:05:31;17.80;;;12.70;;
3341;SDS011;1684;50.748;6.154;2023-08-17T05:07:59;17.33;;;13.27;;
3341;SDS011;1684;50.748;6.154;2023-08-17T05:10:29;19.80;;;12.93;;
3341;SDS011;1684;50.748;6.154;2023-08-17T05:12:57;16.37;;;13.17;;
3341;SDS011;1684;50.748;6.154;2023-08-17T05:15:25;18.63;;;13.90;;
3341;SDS011;1684;50.748;6.154;2023-08-17T05:17:54;17.13;;;12.67;;
3341;SDS011;1684;50.748;6.154;2023-08-17T05:20:22;17.40;;;14.03;;
3341;SDS011;1684;50.748;6.154;2023-08-17T05:22:50;17.43;;;13.50;;
3341;SDS011;1684;50.748;6.154;2023-08-17T05:25:19;19.07;;;14.47;;
3341;SDS011;1684;50.748;6.154;2023-08-17T05:27:49;21.10;;;14.73;;
3341;SDS011;1684;50.748;6.154;2023-08-17T05:30:17;19.17;;;14.00;;
3341;SDS011;1684;50.748;6.154;2023-08-17T05:32:46;20.50;;;14.03;;
3341;SDS011;1684;50.748;6.154;2023-08-17T05:35:14;18.87;;;13.57;;
3341;SDS011;1684;50.748;6.154;2023-08-17T05:37:42;17.90;;;13.40;;
3341;SDS011;1684;50.748;6.154;2023-08-17T05:40:11;19.00;;;14.67;;
3341;SDS011;1684;50.748;6.154;2023-08-17T05:42:39;24.10;;;16.47;;
3341;SDS011;1684;50.748;6.154;2023-08-17T05:45:09;23.40;;;15.97;;
3341;SDS011;1684;50.748;6.154;2023-08-17T05:47:37;23.87;;;17.93;;
3341;SDS011;1684;50.748;6.154;2023-08-17T05:50:06;24.73;;;17.30;;
3341;SDS011;1684;50.748;6.154;2023-08-17T05:52:35;27.83;;;18.20;;
3341;SDS011;1684;50.748;6.154;2023-08-17T05:55:03;23.00;;;17.03;;
3341;SDS011;1684;50.748;6.154;2023-08-17T05:57:31;28.00;;;16.97;;
3341;SDS011;1684;50.748;6.154;2023-08-17T05:59:59;25.17;;;17.37;;
3341;SDS011;1684;50.748;6.154;2023-08-17T06:02:30;23.03;;;16.07;;
3341;SDS011;1684;50.748;6.154;2023-08-17T06:04:58;23.83;;;16.17;;
3341;SDS011;1684;50.748;6.154;2023-08-17T06:07:26;22.87;;;16.10;;
3341;SDS011;1684;50.748;6.154;2023-08-17T06:09:54;23.73;;;17.70;;
3341;SDS011;1684;50.748;6.154;2023-08-17T06:12:23;24.00;;;16.27;;
3341;SDS011;1684;50.748;6.154;2023-08-17T06:14:51;35.73;;;20.43;;
3341;SDS011;1684;50.748;6.154;2023-08-17T06:17:19;20.80;;;15.47;;
3341;SDS011;1684;50.748;6.154;2023-08-17T06:19:49;25.47;;;17.60;;
3341;SDS011;1684;50.748;6.154;2023-08-17T06:22:17;22.77;;;16.80;;
3341;SDS011;1684;50.748;6.154;2023-08-17T06:24:45;28.70;;;18.77;;
3341;SDS011;1684;50.748;6.154;2023-08-17T06:27:14;21.23;;;15.57;;
3341;SDS011;1684;50.748;6.154;2023-08-17T06:29:42;20.80;;;14.60;;
3341;SDS011;1684;50.748;6.154;2023-08-17T06:32:11;35.80;;;23.10;;
3341;SDS011;1684;50.748;6.154;2023-08-17T06:34:39;27.97;;;17.33;;
3341;SDS011;1684;50.748;6.154;2023-08-17T06:37:09;23.23;;;16.70;;
3341;SDS011;1684;50.748;6.154;2023-08-17T06:39:37;27.10;;;17.53;;
3341;SDS011;1684;50.748;6.154;2023-08-17T06:42:05;38.73;;;22.73;;
3341;SDS011;1684;50.748;6.154;2023-08-17T06:44:34;36.30;;;21.30;;
3341;SDS011;1684;50.748;6.154;2023-08-17T06:47:02;34.20;;;21.10;;
3341;SDS011;1684;50.748;6.154;2023-08-17T06:49:30;25.33;;;17.03;;
3341;SDS011;1684;50.748;6.154;2023-08-17T06:51:59;25.07;;;17.67;;
3341;SDS011;1684;50.748;6.154;2023-08-17T06:54:28;27.47;;;18.13;;
3341;SDS011;1684;50.748;6.154;2023-08-17T06:56:58;26.03;;;17.27;;
3341;SDS011;1684;50.748;6.154;2023-08-17T06:59:26;26.13;;;18.00;;
3341;SDS011;1684;50.748;6.154;2023-08-17T07:01:54;24.73;;;16.93;;
3341;SDS011;1684;50.748;6.154;2023-08-17T07:04:23;26.20;;;17.13;;
3341;SDS011;1684;50.748;6.154;2023-08-17T07:06:51;43.90;;;26.63;;
3341;SDS011;1684;50.748;6.154;2023-08-17T07:09:19;51.33;;;26.90;;
3341;SDS011;1684;50.748;6.154;2023-08-17T07:11:49;28.43;;;19.23;;
3341;SDS011;1684;50.748;6.154;2023-08-17T07:14:17;31.77;;;19.10;;
3341;SDS011;1684;50.748;6.154;2023-08-17T07:16:48;25.33;;;16.73;;
3341;SDS011;1684;50.748;6.154;2023-08-17T07:19:16;31.90;;;19.97;;
3341;SDS011;1684;50.748;6.154;2023-08-17T07:21:47;36.43;;;23.60;;
3341;SDS011;1684;50.748;6.154;2023-08-17T07:24:15;55.80;;;31.80;;
3341;SDS011;1684;50.748;6.154;2023-08-17T07:26:44;52.03;;;31.27;;
3341;SDS011;1684;50.748;6.154;2023-08-17T07:29:13;30.07;;;18.50;;
3341;SDS011;1684;50.748;6.154;2023-08-17T07:31:41;33.30;;;21.40;;
3341;SDS011;1684;50.748;6.154;2023-08-17T07:34:10;28.70;;;19.70;;
3341;SDS011;1684;50.748;6.154;2023-08-17T07:36:38;23.23;;;16.60;;
3341;SDS011;1684;50.748;6.154;2023-08-17T07:39:06;32.70;;;18.03;;
3341;SDS011;1684;50.748;6.154;2023-08-17T07:41:34;28.90;;;17.90;;
3341;SDS011;1684;50.748;6.154;2023-08-17T07:44:03;34.20;;;20.50;;
3341;SDS011;1684;50.748;6.154;2023-08-17T07:46:33;25.37;;;17.20;;
3341;SDS011;1684;50.748;6.154;2023-08-17T07:49:01;26.40;;;18.30;;
3341;SDS011;1684;50.748;6.154;2023-08-17T07:51:33;24.27;;;17.33;;
3341;SDS011;1684;50.748;6.154;2023-08-17T07:54:02;24.77;;;17.80;;
3341;SDS011;1684;50.748;6.154;2023-08-17T07:56:30;36.53;;;22.37;;
3341;SDS011;1684;50.748;6.154;2023-08-17T07:58:59;56.10;;;33.00;;
3341;SDS011;1684;50.748;6.154;2023-08-17T08:01:27;45.60;;;27.60;;
3341;SDS011;1684;50.748;6.154;2023-08-17T08:03:56;29.60;;;20.80;;
3341;SDS011;1684;50.748;6.154;2023-08-17T08:06:25;36.60;;;23.20;;
3341;SDS011;1684;50.748;6.154;2023-08-17T08:08:53;49.57;;;29.13;;
3341;SDS011;1684;50.748;6.154;2023-08-17T08:11:22;47.70;;;29.43;;
3341;SDS011;1684;50.748;6.154;2023-08-17T08:13:50;34.07;;;22.00;;
3341;SDS011;1684;50.748;6.154;2023-08-17T08:16:18;29.90;;;19.90;;
3341;SDS011;1684;50.748;6.154;2023-08-17T08:18:46;35.30;;;21.73;;
3341;SDS011;1684;50.748;6.154;2023-08-17T08:21:16;29.10;;;20.13;;
3341;SDS011;1684;50.748;6.154;2023-08-17T08:23:44;25.90;;;18.90;;
3341;SDS011;1684;50.748;6.154;2023-08-17T08:26:13;30.67;;;18.57;;
3341;SDS011;1684;50.748;6.154;2023-08-17T08:28:41;34.43;;;23.23;;
3341;SDS011;1684;50.748;6.154;2023-08-17T08:31:09;49.37;;;30.00;;
3341;SDS011;1684;50.748;6.154;2023-08-17T08:33:38;63.10;;;37.30;;
3341;SDS011;1684;50.748;6.154;2023-08-17T08:36:06;42.33;;;24.23;;
3341;SDS011;1684;50.748;6.154;2023-08-17T08:38:36;57.53;;;30.40;;
3341;SDS011;1684;50.748;6.154;2023-08-17T08:41:04;38.87;;;22.47;;
3341;SDS011;1684;50.748;6.154;2023-08-17T08:43:33;38.83;;;22.63;;
3341;SDS011;1684;50.748;6.154;2023-08-17T08:46:01;36.27;;;23.73;;
3341;SDS011;1684;50.748;6.154;2023-08-17T08:48:30;34.90;;;22.67;;
3341;SDS011;1684;50.748;6.154;2023-08-17T08:50:59;45.70;;;26.87;;
3341;SDS011;1684;50.748;6.154;2023-08-17T08:53:28;42.23;;;27.30;;
3341;SDS011;1684;50.748;6.154;2023-08-17T08:56:03;43.20;;;26.40;;
3341;SDS011;1684;50.748;6.154;2023-08-17T08:58:31;42.23;;;26.17;;
3341;SDS011;1684;50.748;6.154;2023-08-17T09:01:01;55.43;;;34.70;;
3341;SDS011;1684;50.748;6.154;2023-08-17T09:03:33;41.63;;;26.50;;
3341;SDS011;1684;50.748;6.154;2023-08-17T09:06:02;42.17;;;25.67;;
3341;SDS011;1684;50.748;6.154;2023-08-17T09:08:31;37.93;;;24.90;;
3341;SDS011;1684;50.748;6.154;2023-08-17T09:11:00;44.27;;;26.97;;
3341;SDS011;1684;50.748;6.154;2023-08-17T09:13:30;36.90;;;25.80;;
3341;SDS011;1684;50.748;6.154;2023-08-17T09:15:59;43.87;;;26.20;;
3341;SDS011;1684;50.748;6.154;2023-08-17T09:18:32;51.73;;;29.60;;
3341;SDS011;1684;50.748;6.154;2023-08-17T09:21:04;41.73;;;26.80;;
3341;SDS011;1684;50.748;6.154;2023-08-17T09:23:33;62.63;;;35.70;;
3341;SDS011;1684;50.748;6.154;2023-08-17T09:26:05;66.40;;;40.20;;
3341;SDS011;1684;50.748;6.154;2023-08-17T09:28:38;54.20;;;31.70;;
3341;SDS011;1684;50.748;6.154;2023-08-17T09:31:07;46.43;;;28.53;;
3341;SDS011;1684;50.748;6.154;2023-08-17T09:33:35;64.00;;;34.30;;
3341;SDS011;1684;50.748;6.154;2023-08-17T09:36:03;58.50;;;35.53;;
3341;SDS011;1684;50.748;6.154;2023-08-17T09:38:32;42.20;;;26.47;;
3341;SDS011;1684;50.748;6.154;2023-08-17T09:41:00;48.30;;;31.77;;
3341;SDS011;1684;50.748;6.154;2023-08-17T09:43:28;51.43;;;29.70;;
3341;SDS011;1684;50.748;6.154;2023-08-17T09:48:51;51.40;;;30.03;;
3341;SDS011;1684;50.748;6.154;2023-08-17T09:51:19;49.30;;;29.30;;
3341;SDS011;1684;50.748;6.154;2023-08-17T09:53:51;43.43;;;28.37;;
3341;SDS011;1684;50.748;6.154;2023-08-17T09:56:24;42.60;;;23.53;;
3341;SDS011;1684;50.748;6.154;2023-08-17T09:58:58;43.20;;;24.70;;
3341;SDS011;1684;50.748;6.154;2023-08-17T10:01:27;40.47;;;25.77;;
3341;SDS011;1684;50.748;6.154;2023-08-17T10:03:58;44.77;;;27.00;;
3341;SDS011;1684;50.748;6.154;2023-08-17T10:06:28;63.77;;;35.83;;
3341;SDS011;1684;50.748;6.154;2023-08-17T10:08:58;49.27;;;29.30;;
3341;SDS011;1684;50.748;6.154;2023-08-17T10:11:30;53.50;;;34.53;;
3341;SDS011;1684;50.748;6.154;2023-08-17T10:13:59;51.50;;;33.70;;
3341;SDS011;1684;50.748;6.154;2023-08-17T10:16:38;44.37;;;28.60;;
3341;SDS011;1684;50.748;6.154;2023-08-17T10:19:18;42.40;;;28.17;;
3341;SDS011;1684;50.748;6.154;2023-08-17T10:22:01;56.30;;;33.00;;
3341;SDS011;1684;50.748;6.154;2023-08-17T10:24:41;50.03;;;26.03;;
3341;SDS011;1684;50.748;6.154;2023-08-17T10:27:17;39.00;;;26.30;;
3341;SDS011;1684;50.748;6.154;2023-08-17T10:29:51;47.70;;;29.17;;
3341;SDS011;1684;50.748;6.154;2023-08-17T10:32:23;40.40;;;25.90;;
3341;SDS011;1684;50.748;6.154;2023-08-17T10:34:59;52.20;;;31.10;;
3341;SDS011;1684;50.748;6.154;2023-08-17T10:37:44;41.53;;;26.30;;
3341;SDS011;1684;50.748;6.154;2023-08-17T10:40:17;62.63;;;36.63;;
3341;SDS011;1684;50.748;6.154;2023-08-17T10:43:22;52.97;;;30.90;;
3341;SDS011;1684;50.748;6.154;2023-08-17T10:46:01;55.80;;;34.30;;
3341;SDS011;1684;50.748;6.154;2023-08-17T10:48:45;44.53;;;29.73;;
3341;SDS011;1684;50.748;6.154;2023-08-17T10:51:17;65.50;;;42.90;;
3341;SDS011;1684;50.748;6.154;2023-08-17T10:53:51;82.37;;;43.33;;
3341;SDS011;1684;50.748;6.154;2023-08-17T10:56:20;59.87;;;35.27;;
3341;SDS011;1684;50.748;6.154;2023-08-17T10:58:54;46.43;;;30.60;;
3341;SDS011;1684;50.748;6.154;2023-08-17T11:01:32;47.57;;;27.83;;
3341;SDS011;1684;50.748;6.154;2023-08-17T11:04:13;51.63;;;30.83;;
3341;SDS011;1684;50.748;6.154;2023-08-17T11:06:49;46.00;;;27.67;;
3341;SDS011;1684;50.748;6.154;2023-08-17T11:09:28;48.97;;;29.40;;
3341;SDS011;1684;50.748;6.154;2023-08-17T11:11:57;57.93;;;34.13;;
3341;SDS011;1684;50.748;6.154;2023-08-17T11:14:32;44.27;;;29.70;;
3341;SDS011;1684;50.748;6.154;2023-08-17T11:17:02;56.90;;;33.60;;
3341;SDS011;1684;50.748;6.154;2023-08-17T11:19:32;40.13;;;27.57;;
3341;SDS011;1684;50.748;6.154;2023-08-17T11:22:01;50.13;;;31.87;;
3341;SDS011;1684;50.748;6.154;2023-08-17T11:24:30;45.77;;;29.90;;
3341;SDS011;1684;50.748;6.154;2023-08-17T11:26:58;52.80;;;31.17;;
3341;SDS011;1684;50.748;6.154;2023-08-17T11:29:26;47.57;;;28.97;;
3341;SDS011;1684;50.748;6.154;2023-08-17T11:31:58;54.37;;;37.47;;
3341;SDS011;1684;50.748;6.154;2023-08-17T11:34:27;48.20;;;30.60;;
3341;SDS011;1684;50.748;6.154;2023-08-17T11:36:56;45.60;;;29.70;;
3341;SDS011;1684;50.748;6.154;2023-08-17T11:39:33;47.80;;;28.87;;
3341;SDS011;1684;50.748;6.154;2023-08-17T11:42:02;47.10;;;29.13;;
3341;SDS011;1684;50.748;6.154;2023-08-17T11:44:30;46.57;;;28.60;;
3341;SDS011;1684;50.748;6.154;2023-08-17T11:46:58;54.13;;;26.03;;
3341;SDS011;1684;50.748;6.154;2023-08-17T11:49:26;45.47;;;30.63;;
3341;SDS011;1684;50.748;6.154;2023-08-17T11:51:55;48.30;;;30.23;;
3341;SDS011;1684;50.748;6.154;2023-08-17T11:54:23;57.73;;;35.80;;
3341;SDS011;1684;50.748;6.154;2023-08-17T11:56:53;57.30;;;36.47;;
3341;SDS011;1684;50.748;6.154;2023-08-17T11:59:21;42.90;;;29.17;;
3341;SDS011;1684;50.748;6.154;2023-08-17T12:01:49;49.63;;;31.47;;
3341;SDS011;1684;50.748;6.154;2023-08-17T12:04:18;44.40;;;28.80;;
3341;SDS011;1684;50.748;6.154;2023-08-17T12:06:49;44.00;;;28.23;;
3341;SDS011;1684;50.748;6.154;2023-08-17T12:09:17;42.07;;;29.13;;
3341;SDS011;1684;50.748;6.154;2023-08-17T12:11:46;57.10;;;37.57;;
3341;SDS011;1684;50.748;6.154;2023-08-17T12:14:15;42.00;;;29.00;;
3341;SDS011;1684;50.748;6.154;2023-08-17T12:16:46;48.90;;;30.00;;
3341;SDS011;1684;50.748;6.154;2023-08-17T12:19:15;44.70;;;29.70;;
3341;SDS011;1684;50.748;6.154;2023-08-17T12:21:45;52.33;;;32.73;;
3341;SDS011;1684;50.748;6.154;2023-08-17T12:24:14;76.13;;;46.13;;
3341;SDS011;1684;50.748;6.154;2023-08-17T12:26:42;63.60;;;41.77;;
3341;SDS011;1684;50.748;6.154;2023-08-17T12:29:12;44.97;;;30.07;;
3341;SDS011;1684;50.748;6.154;2023-08-17T12:31:42;47.10;;;32.30;;
3341;SDS011;1684;50.748;6.154;2023-08-17T12:34:10;47.50;;;29.13;;
3341;SDS011;1684;50.748;6.154;2023-08-17T12:36:38;50.17;;;32.57;;
3341;SDS011;1684;50.748;6.154;2023-08-17T12:39:06;47.93;;;30.93;;
3341;SDS011;1684;50.748;6.154;2023-08-17T12:41:35;43.00;;;29.60;;
3341;SDS011;1684;50.748;6.154;2023-08-17T12:44:03;52.00;;;35.13;;
3341;SDS011;1684;50.748;6.154;2023-08-17T12:46:31;44.70;;;29.13;;
3341;SDS011;1684;50.748;6.154;2023-08-17T12:49:02;43.07;;;30.77;;
3341;SDS011;1684;50.748;6.154;2023-08-17T12:51:30;44.80;;;30.63;;
3341;SDS011;1684;50.748;6.154;2023-08-17T12:53:58;40.60;;;28.60;;
3341;SDS011;1684;50.748;6.154;2023-08-17T12:56:27;42.57;;;28.83;;
3341;SDS011;1684;50.748;6.154;2023-08-17T12:58:55;45.10;;;30.20;;
3341;SDS011;1684;50.748;6.154;2023-08-17T13:01:28;46.00;;;30.13;;
3341;SDS011;1684;50.748;6.154;2023-08-17T13:03:56;44.17;;;28.07;;
3341;SDS011;1684;50.748;6.154;2023-08-17T13:06:26;51.83;;;33.17;;
3341;SDS011;1684;50.748;6.154;2023-08-17T13:09:13;42.97;;;26.43;;
3341;SDS011;1684;50.748;6.154;2023-08-17T13:11:42;41.17;;;27.00;;
3341;SDS011;1684;50.748;6.154;2023-08-17T13:14:10;45.97;;;25.00;;
3341;SDS011;1684;50.748;6.154;2023-08-17T13:16:39;45.37;;;28.80;;
3341;SDS011;1684;50.748;6.154;2023-08-17T13:19:07;49.90;;;32.20;;
3341;SDS011;1684;50.748;6.154;2023-08-17T13:21:37;45.10;;;29.87;;
3341;SDS011;1684;50.748;6.154;2023-08-17T13:24:05;46.20;;;32.07;;
3341;SDS011;1684;50.748;6.154;2023-08-17T13:26:33;48.20;;;30.23;;
3341;SDS011;1684;50.748;6.154;2023-08-17T13:29:02;43.70;;;31.10;;
3341;SDS011;1684;50.748;6.154;2023-08-17T13:31:30;46.20;;;30.30;;
3341;SDS011;1684;50.748;6.154;2023-08-17T13:33:58;43.20;;;26.57;;
3341;SDS011;1684;50.748;6.154;2023-08-17T13:36:27;41.67;;;28.97;;
3341;SDS011;1684;50.748;6.154;2023-08-17T13:38:56;47.00;;;27.00;;
3341;SDS011;1684;50.748;6.154;2023-08-17T13:41:25;45.90;;;28.90;;
3341;SDS011;1684;50.748;6.154;2023-08-17T13:43:53;45.83;;;28.33;;
3341;SDS011;1684;50.748;6.154;2023-08-17T13:46:26;47.40;;;27.57;;
3341;SDS011;1684;50.748;6.154;2023-08-17T13:48:54;41.87;;;28.60;;
3341;SDS011;1684;50.748;6.154;2023-08-17T13:51:22;48.60;;;27.67;;
3341;SDS011;1684;50.748;6.154;2023-08-17T13:53:51;40.40;;;28.77;;
3341;SDS011;1684;50.748;6.154;2023-08-17T13:56:20;45.70;;;27.27;;
3341;SDS011;1684;50.748;6.154;2023-08-17T13:58:48;48.30;;;29.37;;
3341;SDS011;1684;50.748;6.154;2023-08-17T14:01:17;45.40;;;27.63;;
3341;SDS011;1684;50.748;6.154;2023-08-17T14:03:46;45.93;;;30.60;;
3341;SDS011;1684;50.748;6.154;2023-08-17T14:06:15;45.23;;;27.63;;
3341;SDS011;1684;50.748;6.154;2023-08-17T14:08:43;45.73;;;29.87;;
3341;SDS011;1684;50.748;6.154;2023-08-17T14:11:11;40.87;;;24.50;;
3341;SDS011;1684;50.748;6.154;2023-08-17T14:13:41;47.63;;;30.80;;
3341;SDS011;1684;50.748;6.154;2023-08-17T14:16:09;43.73;;;27.60;;
3341;SDS011;1684;50.748;6.154;2023-08-17T14:18:38;43.03;;;28.07;;
3341;SDS011;1684;50.748;6.154;2023-08-17T14:21:06;42.20;;;29.10;;
3341;SDS011;1684;50.748;6.154;2023-08-17T14:23:34;48.70;;;30.90;;
3341;SDS011;1684;50.748;6.154;2023-08-17T14:26:02;40.97;;;27.77;;
3341;SDS011;1684;50.748;6.154;2023-08-17T14:28:31;49.73;;;29.30;;
3341;SDS011;1684;50.748;6.154;2023-08-17T14:31:00;36.23;;;27.30;;
3341;SDS011;1684;50.748;6.154;2023-08-17T14:33:28;41.57;;;28.40;;
3341;SDS011;1684;50.748;6.154;2023-08-17T14:35:57;42.47;;;27.10;;
3341;SDS011;1684;50.748;6.154;2023-08-17T14:38:25;42.90;;;26.57;;
3341;SDS011;1684;50.748;6.154;2023-08-17T14:40:56;45.80;;;25.00;;
3341;SDS011;1684;50.748;6.154;2023-08-17T14:43:24;40.70;;;26.90;;
3341;SDS011;1684;50.748;6.154;2023-08-17T14:45:53;39.47;;;26.40;;
3341;SDS011;1684;50.748;6.154;2023-08-17T14:48:23;47.00;;;33.40;;
3341;SDS011;1684;50.748;6.154;2023-08-17T14:50:51;41.97;;;24.47;;
3341;SDS011;1684;50.748;6.154;2023-08-17T14:53:19;41.53;;;28.07;;
3341;SDS011;1684;50.748;6.154;2023-08-17T14:55:47;47.23;;;29.40;;
3341;SDS011;1684;50.748;6.154;2023-08-17T14:58:16;49.10;;;31.10;;
3341;SDS011;1684;50.748;6.154;2023-08-17T15:00:44;43.17;;;27.87;;
3341;SDS011;1684;50.748;6.154;2023-08-17T15:03:12;43.60;;;30.50;;